sensor_id;sensor_type;location;lat;lon;timestamp;P1;P2;P0
45700;PMS5003;36277;32.852;-116.998;2024-03-08T00:00:28;2.00;2.00;1.40
45700;PMS5003;36277;32.852;-116.998;2024-03-08T00:02:57;2.40;2.40;1.60
45700;PMS5003;36277;32.852;-116.998;2024-03-08T00:05:26;1.40;1.40;1.00
45700;PMS5003;36277;32.852;-116.998;2024-03-08T00:07:52;1.00;1.00;1.00
45700;PMS5003;36277;32.852;-116.998;2024-03-08T00:10:18;1.60;1.60;1.00
45700;PMS5003;36277;32.852;-116.998;2024-03-08T00:12:46;1.00;1.00;0.00
45700;PMS5003;36277;32.852;-116.998;2024-03-08T00:15:16;0.80;0.80;0.00
45700;PMS5003;36277;32.852;-116.998;2024-03-08T00:17:43;2.00;2.00;1.00
45700;PMS5003;36277;32.852;-116.998;2024-03-08T00:20:10;1.00;1.00;1.00
45700;PMS5003;36277;32.852;-116.998;2024-03-08T00:22:37;1.20;1.20;1.00
45700;PMS5003;36277;32.852;-116.998;2024-03-08T00:25:04;0.60;0.60;0.00
45700;PMS5003;36277;32.852;-116.998;2024-03-08T00:27:31;1.40;1.40;1.40
45700;PMS5003;36277;32.852;-116.998;2024-03-08T00:29:57;1.80;1.80;1.20
45700;PMS5003;36277;32.852;-116.998;2024-03-08T00:32:24;0.80;0.80;0.80
45700;PMS5003;36277;32.852;-116.998;2024-03-08T00:34:50;1.00;1.00;1.00
45700;PMS5003;36277;32.852;-116.998;2024-03-08T00:37:20;0.80;0.80;0.40
45700;PMS5003;36277;32.852;-116.998;2024-03-08T00:39:56;0.00;0.00;0.00
45700;PMS5003;36277;32.852;-116.998;2024-03-08T00:42:22;0.20;0.20;0.00
45700;PMS5003;36277;32.852;-116.998;2024-03-08T00:44:49;1.60;1.60;1.00
45700;PMS5003;36277;32.852;-116.998;2024-03-08T00:47:16;1.00;1.00;1.00
45700;PMS5003;36277;32.852;-116.998;2024-03-08T00:49:43;1.00;1.00;1.00
45700;PMS5003;36277;32.852;-116.998;2024-03-08T00:52:09;1.00;1.00;1.00
45700;PMS5003;36277;32.852;-116.998;2024-03-08T00:54:35;1.00;1.00;1.00
45700;PMS5003;36277;32.852;-116.998;2024-03-08T00:57:02;0.20;0.20;0.00
45700;PMS5003;36277;32.852;-116.998;2024-03-08T00:59:29;1.00;1.00;1.00
45700;PMS5003;36277;32.852;-116.998;2024-03-08T01:01:59;1.00;1.00;1.00
45700;PMS5003;36277;32.852;-116.998;2024-03-08T01:04:26;2.80;2.80;2.00
45700;PMS5003;36277;32.852;-116.998;2024-03-08T01:06:56;1.00;1.00;1.00
45700;PMS5003;36277;32.852;-116.998;2024-03-08T01:09:23;1.60;1.60;1.00
45700;PMS5003;36277;32.852;-116.998;2024-03-08T01:11:50;1.40;1.40;1.00
45700;PMS5003;36277;32.852;-116.998;2024-03-08T01:14:18;2.20;2.20;2.00
45700;PMS5003;36277;32.852;-116.998;2024-03-08T01:16:44;2.80;2.80;2.00
45700;PMS5003;36277;32.852;-116.998;2024-03-08T01:19:10;2.00;2.00;1.40
45700;PMS5003;36277;32.852;-116.998;2024-03-08T01:21:37;1.00;1.00;1.00
45700;PMS5003;36277;32.852;-116.998;2024-03-08T01:24:03;1.00;1.00;1.00
45700;PMS5003;36277;32.852;-116.998;2024-03-08T01:26:30;1.40;1.40;1.00
45700;PMS5003;36277;32.852;-116.998;2024-03-08T01:28:56;1.00;1.00;1.00
45700;PMS5003;36277;32.852;-116.998;2024-03-08T01:31:22;1.60;1.60;1.00
45700;PMS5003;36277;32.852;-116.998;2024-03-08T01:33:49;1.80;1.80;1.60
45700;PMS5003;36277;32.852;-116.998;2024-03-08T01:36:15;3.00;3.00;3.00
45700;PMS5003;36277;32.852;-116.998;2024-03-08T01:38:44;1.00;1.00;1.00
45700;PMS5003;36277;32.852;-116.998;2024-03-08T01:41:10;2.00;2.00;1.60
45700;PMS5003;36277;32.852;-116.998;2024-03-08T01:43:38;2.00;2.00;1.40
45700;PMS5003;36277;32.852;-116.998;2024-03-08T01:46:04;2.00;2.00;1.40
45700;PMS5003;36277;32.852;-116.998;2024-03-08T01:48:33;1.00;1.00;1.00
45700;PMS5003;36277;32.852;-116.998;2024-03-08T01:51:00;1.00;1.00;0.60
45700;PMS5003;36277;32.852;-116.998;2024-03-08T01:53:26;1.00;1.00;1.00
45700;PMS5003;36277;32.852;-116.998;2024-03-08T01:55:56;1.00;1.00;1.00
45700;PMS5003;36277;32.852;-116.998;2024-03-08T01:58:23;1.00;1.00;1.00
45700;PMS5003;36277;32.852;-116.998;2024-03-08T02:00:53;2.00;2.00;1.00
45700;PMS5003;36277;32.852;-116.998;2024-03-08T02:03:21;2.00;2.00;1.00
45700;PMS5003;36277;32.852;-116.998;2024-03-08T02:05:48;1.80;1.80;1.00
45700;PMS5003;36277;32.852;-116.998;2024-03-08T02:08:16;1.60;1.60;1.60
45700;PMS5003;36277;32.852;-116.998;2024-03-08T02:10:44;2.00;2.00;1.60
45700;PMS5003;36277;32.852;-116.998;2024-03-08T02:13:11;2.40;2.40;2.40
45700;PMS5003;36277;32.852;-116.998;2024-03-08T02:15:56;2.00;2.00;1.80
45700;PMS5003;36277;32.852;-116.998;2024-03-08T02:18:26;1.00;1.00;1.00
45700;PMS5003;36277;32.852;-116.998;2024-03-08T02:21:00;1.40;1.40;1.20
45700;PMS5003;36277;32.852;-116.998;2024-03-08T02:23:28;2.00;2.00;1.60
45700;PMS5003;36277;32.852;-116.998;2024-03-08T02:25:55;1.00;1.00;1.00
45700;PMS5003;36277;32.852;-116.998;2024-03-08T02:28:22;1.60;1.60;1.00
45700;PMS5003;36277;32.852;-116.998;2024-03-08T02:30:51;1.40;1.40;1.00
45700;PMS5003;36277;32.852;-116.998;2024-03-08T02:33:21;1.60;1.60;1.40
45700;PMS5003;36277;32.852;-116.998;2024-03-08T02:35:48;1.40;1.40;1.40
45700;PMS5003;36277;32.852;-116.998;2024-03-08T02:38:18;1.00;1.00;1.00
45700;PMS5003;36277;32.852;-116.998;2024-03-08T02:40:47;1.00;1.00;1.00
45700;PMS5003;36277;32.852;-116.998;2024-03-08T02:43:14;2.00;2.00;2.00
45700;PMS5003;36277;32.852;-116.998;2024-03-08T02:45:43;1.60;1.60;1.00
45700;PMS5003;36277;32.852;-116.998;2024-03-08T02:48:11;1.60;1.60;1.60
45700;PMS5003;36277;32.852;-116.998;2024-03-08T02:50:38;1.00;1.00;0.20
45700;PMS5003;36277;32.852;-116.998;2024-03-08T02:53:08;2.00;2.00;1.00
45700;PMS5003;36277;32.852;-116.998;2024-03-08T02:55:35;1.60;1.60;1.60
45700;PMS5003;36277;32.852;-116.998;2024-03-08T02:58:04;2.60;2.60;1.80
45700;PMS5003;36277;32.852;-116.998;2024-03-08T03:00:33;1.00;1.00;1.00
45700;PMS5003;36277;32.852;-116.998;2024-03-08T03:03:00;2.00;2.00;2.00
45700;PMS5003;36277;32.852;-116.998;2024-03-08T03:05:28;1.20;1.20;1.00
45700;PMS5003;36277;32.852;-116.998;2024-03-08T03:07:58;1.00;1.00;1.00
45700;PMS5003;36277;32.852;-116.998;2024-03-08T03:10:25;1.60;1.60;1.60
45700;PMS5003;36277;32.852;-116.998;2024-03-08T03:12:51;1.40;1.40;1.00
45700;PMS5003;36277;32.852;-116.998;2024-03-08T03:15:18;1.40;1.40;1.40
45700;PMS5003;36277;32.852;-116.998;2024-03-08T03:17:48;1.20;1.20;1.00
45700;PMS5003;36277;32.852;-116.998;2024-03-08T03:20:18;1.60;1.60;1.00
45700;PMS5003;36277;32.852;-116.998;2024-03-08T03:22:51;1.00;1.00;1.00
45700;PMS5003;36277;32.852;-116.998;2024-03-08T03:25:21;1.00;1.00;1.00
45700;PMS5003;36277;32.852;-116.998;2024-03-08T03:28:03;0.40;0.40;0.40
45700;PMS5003;36277;32.852;-116.998;2024-03-08T03:30:30;0.00;0.00;0.00
45700;PMS5003;36277;32.852;-116.998;2024-03-08T03:33:01;1.00;1.00;1.00
45700;PMS5003;36277;32.852;-116.998;2024-03-08T03:35:32;3.00;3.00;1.40
45700;PMS5003;36277;32.852;-116.998;2024-03-08T03:37:59;1.00;1.00;1.00
45700;PMS5003;36277;32.852;-116.998;2024-03-08T03:40:32;1.80;1.80;1.20
45700;PMS5003;36277;32.852;-116.998;2024-03-08T03:42:59;1.00;1.00;0.80
45700;PMS5003;36277;32.852;-116.998;2024-03-08T03:45:26;1.00;1.00;1.00
45700;PMS5003;36277;32.852;-116.998;2024-03-08T03:47:53;1.20;1.20;1.00
45700;PMS5003;36277;32.852;-116.998;2024-03-08T03:50:19;1.00;1.00;1.00
45700;PMS5003;36277;32.852;-116.998;2024-03-08T03:52:47;2.00;2.00;1.60
45700;PMS5003;36277;32.852;-116.998;2024-03-08T03:55:14;2.60;2.60;2.00
45700;PMS5003;36277;32.852;-116.998;2024-03-08T03:57:40;0.60;0.60;0.60
45700;PMS5003;36277;32.852;-116.998;2024-03-08T04:00:07;2.40;2.00;1.40
45700;PMS5003;36277;32.852;-116.998;2024-03-08T04:02:38;0.40;0.40;0.40
45700;PMS5003;36277;32.852;-116.998;2024-03-08T04:05:06;1.00;1.00;1.00
45700;PMS5003;36277;32.852;-116.998;2024-03-08T04:07:34;0.60;0.60;0.60
45700;PMS5003;36277;32.852;-116.998;2024-03-08T04:10:03;1.80;1.80;1.20
45700;PMS5003;36277;32.852;-116.998;2024-03-08T04:12:34;0.00;0.00;0.00
45700;PMS5003;36277;32.852;-116.998;2024-03-08T04:15:00;1.00;1.00;0.40
45700;PMS5003;36277;32.852;-116.998;2024-03-08T04:17:27;1.00;1.00;0.00
45700;PMS5003;36277;32.852;-116.998;2024-03-08T04:19:54;1.80;1.80;1.80
45700;PMS5003;36277;32.852;-116.998;2024-03-08T04:22:20;1.80;1.80;1.80
45700;PMS5003;36277;32.852;-116.998;2024-03-08T04:24:46;1.00;1.00;0.80
45700;PMS5003;36277;32.852;-116.998;2024-03-08T04:27:13;1.00;1.00;1.00
45700;PMS5003;36277;32.852;-116.998;2024-03-08T04:29:39;1.00;1.00;1.00
45700;PMS5003;36277;32.852;-116.998;2024-03-08T04:32:06;1.20;1.20;1.00
45700;PMS5003;36277;32.852;-116.998;2024-03-08T04:34:34;1.60;1.60;1.00
45700;PMS5003;36277;32.852;-116.998;2024-03-08T04:37:01;1.00;1.00;0.80
45700;PMS5003;36277;32.852;-116.998;2024-03-08T04:39:27;1.00;1.00;1.00
45700;PMS5003;36277;32.852;-116.998;2024-03-08T04:41:55;1.00;1.00;1.00
45700;PMS5003;36277;32.852;-116.998;2024-03-08T04:44:29;1.00;1.00;1.00
45700;PMS5003;36277;32.852;-116.998;2024-03-08T04:46:56;1.00;1.00;1.00
45700;PMS5003;36277;32.852;-116.998;2024-03-08T04:49:23;1.00;1.00;1.00
45700;PMS5003;36277;32.852;-116.998;2024-03-08T04:51:49;1.40;1.40;1.00
45700;PMS5003;36277;32.852;-116.998;2024-03-08T04:54:18;0.80;0.80;0.80
45700;PMS5003;36277;32.852;-116.998;2024-03-08T04:56:45;1.20;1.20;1.00
45700;PMS5003;36277;32.852;-116.998;2024-03-08T04:59:11;1.60;1.60;1.00
45700;PMS5003;36277;32.852;-116.998;2024-03-08T05:01:39;1.00;1.00;1.00
45700;PMS5003;36277;32.852;-116.998;2024-03-08T05:04:05;1.00;1.00;1.00
45700;PMS5003;36277;32.852;-116.998;2024-03-08T05:06:31;1.00;1.00;1.00
45700;PMS5003;36277;32.852;-116.998;2024-03-08T05:08:58;0.80;0.80;0.00
45700;PMS5003;36277;32.852;-116.998;2024-03-08T05:11:25;1.00;1.00;1.00
45700;PMS5003;36277;32.852;-116.998;2024-03-08T05:13:51;1.00;1.00;1.00
45700;PMS5003;36277;32.852;-116.998;2024-03-08T05:16:18;1.00;1.00;0.80
45700;PMS5003;36277;32.852;-116.998;2024-03-08T05:18:47;0.00;0.00;0.00
45700;PMS5003;36277;32.852;-116.998;2024-03-08T05:21:14;1.60;1.60;1.00
45700;PMS5003;36277;32.852;-116.998;2024-03-08T05:23:42;1.00;1.00;0.20
45700;PMS5003;36277;32.852;-116.998;2024-03-08T05:26:09;1.00;1.00;1.00
45700;PMS5003;36277;32.852;-116.998;2024-03-08T05:28:35;0.60;0.60;0.60
45700;PMS5003;36277;32.852;-116.998;2024-03-08T05:31:01;1.20;1.20;1.00
45700;PMS5003;36277;32.852;-116.998;2024-03-08T05:33:28;1.00;1.00;1.00
45700;PMS5003;36277;32.852;-116.998;2024-03-08T05:35:54;1.00;1.00;1.00
45700;PMS5003;36277;32.852;-116.998;2024-03-08T05:38:21;1.00;1.00;1.00
45700;PMS5003;36277;32.852;-116.998;2024-03-08T05:40:47;1.00;1.00;1.00
45700;PMS5003;36277;32.852;-116.998;2024-03-08T05:43:13;0.20;0.20;0.20
45700;PMS5003;36277;32.852;-116.998;2024-03-08T05:45:42;1.00;1.00;1.00
45700;PMS5003;36277;32.852;-116.998;2024-03-08T05:48:09;1.60;1.60;1.00
45700;PMS5003;36277;32.852;-116.998;2024-03-08T05:50:35;0.60;0.60;0.40
45700;PMS5003;36277;32.852;-116.998;2024-03-08T05:53:01;0.20;0.20;0.00
45700;PMS5003;36277;32.852;-116.998;2024-03-08T05:55:27;1.00;1.00;1.00
45700;PMS5003;36277;32.852;-116.998;2024-03-08T05:57:55;1.00;1.00;1.00
45700;PMS5003;36277;32.852;-116.998;2024-03-08T06:00:22;1.00;1.00;1.00
45700;PMS5003;36277;32.852;-116.998;2024-03-08T06:02:49;0.00;0.00;0.00
45700;PMS5003;36277;32.852;-116.998;2024-03-08T06:05:15;0.00;0.00;0.00
45700;PMS5003;36277;32.852;-116.998;2024-03-08T06:07:42;1.00;1.00;1.00
45700;PMS5003;36277;32.852;-116.998;2024-03-08T06:10:09;1.00;1.00;1.00
45700;PMS5003;36277;32.852;-116.998;2024-03-08T06:12:36;1.00;1.00;1.00
45700;PMS5003;36277;32.852;-116.998;2024-03-08T06:15:07;2.00;2.00;2.00
45700;PMS5003;36277;32.852;-116.998;2024-03-08T06:17:35;0.20;0.20;0.00
45700;PMS5003;36277;32.852;-116.998;2024-03-08T06:20:02;1.40;1.40;1.00
45700;PMS5003;36277;32.852;-116.998;2024-03-08T06:22:42;1.80;1.80;1.60
45700;PMS5003;36277;32.852;-116.998;2024-03-08T06:25:09;1.00;1.00;1.00
45700;PMS5003;36277;32.852;-116.998;2024-03-08T06:27:40;0.00;0.00;0.00
45700;PMS5003;36277;32.852;-116.998;2024-03-08T06:30:12;1.20;1.20;1.00
45700;PMS5003;36277;32.852;-116.998;2024-03-08T06:32:38;1.00;1.00;1.00
45700;PMS5003;36277;32.852;-116.998;2024-03-08T06:35:05;2.00;2.00;2.00
45700;PMS5003;36277;32.852;-116.998;2024-03-08T06:37:32;0.80;0.80;0.80
45700;PMS5003;36277;32.852;-116.998;2024-03-08T06:40:00;1.00;1.00;1.00
45700;PMS5003;36277;32.852;-116.998;2024-03-08T06:42:28;1.00;1.00;1.00
45700;PMS5003;36277;32.852;-116.998;2024-03-08T06:44:59;0.00;0.00;0.00
45700;PMS5003;36277;32.852;-116.998;2024-03-08T06:47:31;0.20;0.20;0.20
45700;PMS5003;36277;32.852;-116.998;2024-03-08T06:49:58;0.80;0.80;0.80
45700;PMS5003;36277;32.852;-116.998;2024-03-08T06:52:24;1.00;1.00;0.20
45700;PMS5003;36277;32.852;-116.998;2024-03-08T06:54:51;1.00;1.00;1.00
45700;PMS5003;36277;32.852;-116.998;2024-03-08T06:57:18;1.40;1.40;1.20
45700;PMS5003;36277;32.852;-116.998;2024-03-08T06:59:47;1.00;1.00;1.00
45700;PMS5003;36277;32.852;-116.998;2024-03-08T07:02:14;1.00;1.00;1.00
45700;PMS5003;36277;32.852;-116.998;2024-03-08T07:04:40;1.60;1.60;1.20
45700;PMS5003;36277;32.852;-116.998;2024-03-08T07:07:07;1.20;1.20;1.20
45700;PMS5003;36277;32.852;-116.998;2024-03-08T07:09:37;1.00;1.00;1.00
45700;PMS5003;36277;32.852;-116.998;2024-03-08T07:12:04;0.40;0.40;0.00
45700;PMS5003;36277;32.852;-116.998;2024-03-08T07:14:30;1.00;1.00;1.00
45700;PMS5003;36277;32.852;-116.998;2024-03-08T07:16:57;1.00;1.00;1.00
45700;PMS5003;36277;32.852;-116.998;2024-03-08T07:19:23;1.00;1.00;1.00
45700;PMS5003;36277;32.852;-116.998;2024-03-08T07:21:49;1.00;1.00;0.80
45700;PMS5003;36277;32.852;-116.998;2024-03-08T07:24:15;1.00;1.00;1.00
45700;PMS5003;36277;32.852;-116.998;2024-03-08T07:26:42;0.00;0.00;0.00
45700;PMS5003;36277;32.852;-116.998;2024-03-08T07:29:09;0.00;0.00;0.00
45700;PMS5003;36277;32.852;-116.998;2024-03-08T07:31:35;1.00;1.00;1.00
45700;PMS5003;36277;32.852;-116.998;2024-03-08T07:34:07;1.00;1.00;1.00
45700;PMS5003;36277;32.852;-116.998;2024-03-08T07:36:34;1.00;1.00;1.00
45700;PMS5003;36277;32.852;-116.998;2024-03-08T07:39:00;0.40;0.40;0.20
45700;PMS5003;36277;32.852;-116.998;2024-03-08T07:41:27;0.20;0.20;0.00
45700;PMS5003;36277;32.852;-116.998;2024-03-08T07:43:55;1.00;1.00;1.00
45700;PMS5003;36277;32.852;-116.998;2024-03-08T07:46:21;1.00;1.00;0.80
45700;PMS5003;36277;32.852;-116.998;2024-03-08T07:48:48;0.00;0.00;0.00
45700;PMS5003;36277;32.852;-116.998;2024-03-08T07:51:17;0.60;0.60;0.60
45700;PMS5003;36277;32.852;-116.998;2024-03-08T07:53:43;0.00;0.00;0.00
45700;PMS5003;36277;32.852;-116.998;2024-03-08T07:56:10;1.00;1.00;1.00
45700;PMS5003;36277;32.852;-116.998;2024-03-08T07:58:39;0.00;0.00;0.00
45700;PMS5003;36277;32.852;-116.998;2024-03-08T08:01:15;1.00;1.00;0.00
45700;PMS5003;36277;32.852;-116.998;2024-03-08T08:03:42;0.00;0.00;0.00
45700;PMS5003;36277;32.852;-116.998;2024-03-08T08:06:08;0.00;0.00;0.00
45700;PMS5003;36277;32.852;-116.998;2024-03-08T08:08:35;0.00;0.00;0.00
45700;PMS5003;36277;32.852;-116.998;2024-03-08T08:11:02;1.00;1.00;0.80
45700;PMS5003;36277;32.852;-116.998;2024-03-08T08:13:28;0.80;0.80;0.60
45700;PMS5003;36277;32.852;-116.998;2024-03-08T08:15:57;0.60;0.60;0.00
45700;PMS5003;36277;32.852;-116.998;2024-03-08T08:18:24;1.00;1.00;0.80
45700;PMS5003;36277;32.852;-116.998;2024-03-08T08:20:51;0.60;0.60;0.60
45700;PMS5003;36277;32.852;-116.998;2024-03-08T08:23:20;0.00;0.00;0.00
45700;PMS5003;36277;32.852;-116.998;2024-03-08T08:25:46;0.00;0.00;0.00
45700;PMS5003;36277;32.852;-116.998;2024-03-08T08:28:16;1.60;1.60;1.00
45700;PMS5003;36277;32.852;-116.998;2024-03-08T08:30:44;0.80;0.80;0.80
45700;PMS5003;36277;32.852;-116.998;2024-03-08T08:33:10;1.00;1.00;1.00
45700;PMS5003;36277;32.852;-116.998;2024-03-08T08:35:37;1.00;1.00;1.00
45700;PMS5003;36277;32.852;-116.998;2024-03-08T08:38:04;1.00;1.00;1.00
45700;PMS5003;36277;32.852;-116.998;2024-03-08T08:40:33;0.00;0.00;0.00
45700;PMS5003;36277;32.852;-116.998;2024-03-08T08:43:01;1.00;1.00;1.00
45700;PMS5003;36277;32.852;-116.998;2024-03-08T08:45:32;0.40;0.40;0.00
45700;PMS5003;36277;32.852;-116.998;2024-03-08T08:47:59;0.00;0.00;0.00
45700;PMS5003;36277;32.852;-116.998;2024-03-08T08:50:25;0.00;0.00;0.00
45700;PMS5003;36277;32.852;-116.998;2024-03-08T08:52:53;0.00;0.00;0.00
45700;PMS5003;36277;32.852;-116.998;2024-03-08T08:55:20;1.00;1.00;1.00
45700;PMS5003;36277;32.852;-116.998;2024-03-08T08:57:50;0.60;0.60;0.40
45700;PMS5003;36277;32.852;-116.998;2024-03-08T09:00:18;0.80;0.80;0.20
45700;PMS5003;36277;32.852;-116.998;2024-03-08T09:02:52;1.00;1.00;1.00
45700;PMS5003;36277;32.852;-116.998;2024-03-08T09:05:20;0.60;0.60;0.00
45700;PMS5003;36277;32.852;-116.998;2024-03-08T09:07:49;0.00;0.00;0.00
45700;PMS5003;36277;32.852;-116.998;2024-03-08T09:10:15;0.00;0.00;0.00
45700;PMS5003;36277;32.852;-116.998;2024-03-08T09:12:42;0.00;0.00;0.00
45700;PMS5003;36277;32.852;-116.998;2024-03-08T09:15:08;0.00;0.00;0.00
45700;PMS5003;36277;32.852;-116.998;2024-03-08T09:17:36;0.00;0.00;0.00
45700;PMS5003;36277;32.852;-116.998;2024-03-08T09:20:06;0.00;0.00;0.00
45700;PMS5003;36277;32.852;-116.998;2024-03-08T09:22:34;0.00;0.00;0.00
45700;PMS5003;36277;32.852;-116.998;2024-03-08T09:25:00;0.00;0.00;0.00
45700;PMS5003;36277;32.852;-116.998;2024-03-08T09:27:27;0.40;0.40;0.00
45700;PMS5003;36277;32.852;-116.998;2024-03-08T09:29:54;0.00;0.00;0.00
45700;PMS5003;36277;32.852;-116.998;2024-03-08T09:32:21;0.00;0.00;0.00
45700;PMS5003;36277;32.852;-116.998;2024-03-08T09:34:48;0.40;0.40;0.20
45700;PMS5003;36277;32.852;-116.998;2024-03-08T09:37:14;0.00;0.00;0.00
45700;PMS5003;36277;32.852;-116.998;2024-03-08T09:39:40;0.00;0.00;0.00
45700;PMS5003;36277;32.852;-116.998;2024-03-08T09:42:06;0.00;0.00;0.00
45700;PMS5003;36277;32.852;-116.998;2024-03-08T09:44:33;0.00;0.00;0.00
45700;PMS5003;36277;32.852;-116.998;2024-03-08T09:47:00;0.00;0.00;0.00
45700;PMS5003;36277;32.852;-116.998;2024-03-08T09:49:29;0.00;0.00;0.00
45700;PMS5003;36277;32.852;-116.998;2024-03-08T09:51:56;0.20;0.20;0.00
45700;PMS5003;36277;32.852;-116.998;2024-03-08T09:54:23;0.20;0.20;0.20
45700;PMS5003;36277;32.852;-116.998;2024-03-08T09:56:51;0.00;0.00;0.00
45700;PMS5003;36277;32.852;-116.998;2024-03-08T09:59:18;1.00;1.00;0.80
45700;PMS5003;36277;32.852;-116.998;2024-03-08T10:01:54;0.00;0.00;0.00
45700;PMS5003;36277;32.852;-116.998;2024-03-08T10:04:24;0.00;0.00;0.00
45700;PMS5003;36277;32.852;-116.998;2024-03-08T10:06:53;0.00;0.00;0.00
45700;PMS5003;36277;32.852;-116.998;2024-03-08T10:09:22;0.20;0.20;0.00
45700;PMS5003;36277;32.852;-116.998;2024-03-08T10:11:50;0.00;0.00;0.00
45700;PMS5003;36277;32.852;-116.998;2024-03-08T10:14:18;0.00;0.00;0.00
45700;PMS5003;36277;32.852;-116.998;2024-03-08T10:16:45;0.00;0.00;0.00
45700;PMS5003;36277;32.852;-116.998;2024-03-08T10:19:12;0.40;0.40;0.00
45700;PMS5003;36277;32.852;-116.998;2024-03-08T10:21:50;0.00;0.00;0.00
45700;PMS5003;36277;32.852;-116.998;2024-03-08T10:24:22;0.00;0.00;0.00
45700;PMS5003;36277;32.852;-116.998;2024-03-08T10:27:01;0.00;0.00;0.00
45700;PMS5003;36277;32.852;-116.998;2024-03-08T10:29:32;0.00;0.00;0.00
45700;PMS5003;36277;32.852;-116.998;2024-03-08T10:31:58;0.00;0.00;0.00
45700;PMS5003;36277;32.852;-116.998;2024-03-08T10:34:25;0.00;0.00;0.00
45700;PMS5003;36277;32.852;-116.998;2024-03-08T10:36:51;0.00;0.00;0.00
45700;PMS5003;36277;32.852;-116.998;2024-03-08T10:39:20;0.00;0.00;0.00
45700;PMS5003;36277;32.852;-116.998;2024-03-08T10:41:53;0.00;0.00;0.00
45700;PMS5003;36277;32.852;-116.998;2024-03-08T10:47:03;0.00;0.00;0.00
45700;PMS5003;36277;32.852;-116.998;2024-03-08T10:49:40;0.00;0.00;0.00
45700;PMS5003;36277;32.852;-116.998;2024-03-08T10:52:13;0.00;0.00;0.00
45700;PMS5003;36277;32.852;-116.998;2024-03-08T10:54:42;1.00;1.00;1.00
45700;PMS5003;36277;32.852;-116.998;2024-03-08T10:57:12;0.00;0.00;0.00
45700;PMS5003;36277;32.852;-116.998;2024-03-08T10:59:40;0.00;0.00;0.00
45700;PMS5003;36277;32.852;-116.998;2024-03-08T11:02:10;0.80;0.80;0.00
45700;PMS5003;36277;32.852;-116.998;2024-03-08T11:04:38;1.20;1.20;1.20
45700;PMS5003;36277;32.852;-116.998;2024-03-08T11:07:04;0.00;0.00;0.00
45700;PMS5003;36277;32.852;-116.998;2024-03-08T11:09:35;0.00;0.00;0.00
45700;PMS5003;36277;32.852;-116.998;2024-03-08T11:15:00;0.00;0.00;0.00
45700;PMS5003;36277;32.852;-116.998;2024-03-08T11:17:40;0.00;0.00;0.00
45700;PMS5003;36277;32.852;-116.998;2024-03-08T11:20:14;0.00;0.00;0.00
45700;PMS5003;36277;32.852;-116.998;2024-03-08T11:22:47;0.00;0.00;0.00
45700;PMS5003;36277;32.852;-116.998;2024-03-08T11:25:37;0.00;0.00;0.00
45700;PMS5003;36277;32.852;-116.998;2024-03-08T11:28:20;0.00;0.00;0.00
45700;PMS5003;36277;32.852;-116.998;2024-03-08T11:33:26;0.00;0.00;0.00
45700;PMS5003;36277;32.852;-116.998;2024-03-08T11:38:51;0.00;0.00;0.00
45700;PMS5003;36277;32.852;-116.998;2024-03-08T11:41:20;0.00;0.00;0.00
45700;PMS5003;36277;32.852;-116.998;2024-03-08T11:44:01;0.00;0.00;0.00
45700;PMS5003;36277;32.852;-116.998;2024-03-08T11:46:31;0.00;0.00;0.00
45700;PMS5003;36277;32.852;-116.998;2024-03-08T11:48:57;0.80;0.80;0.80
45700;PMS5003;36277;32.852;-116.998;2024-03-08T11:51:23;0.00;0.00;0.00
45700;PMS5003;36277;32.852;-116.998;2024-03-08T11:53:50;0.00;0.00;0.00
45700;PMS5003;36277;32.852;-116.998;2024-03-08T11:56:16;0.00;0.00;0.00
45700;PMS5003;36277;32.852;-116.998;2024-03-08T11:58:52;0.00;0.00;0.00
45700;PMS5003;36277;32.852;-116.998;2024-03-08T12:01:22;0.00;0.00;0.00
45700;PMS5003;36277;32.852;-116.998;2024-03-08T12:03:53;0.00;0.00;0.00
45700;PMS5003;36277;32.852;-116.998;2024-03-08T12:06:20;0.00;0.00;0.00
45700;PMS5003;36277;32.852;-116.998;2024-03-08T12:08:46;0.00;0.00;0.00
45700;PMS5003;36277;32.852;-116.998;2024-03-08T12:11:18;0.00;0.00;0.00
45700;PMS5003;36277;32.852;-116.998;2024-03-08T12:13:48;0.00;0.00;0.00
45700;PMS5003;36277;32.852;-116.998;2024-03-08T12:16:19;0.00;0.00;0.00
45700;PMS5003;36277;32.852;-116.998;2024-03-08T12:18:50;0.00;0.00;0.00
45700;PMS5003;36277;32.852;-116.998;2024-03-08T12:21:19;0.00;0.00;0.00
45700;PMS5003;36277;32.852;-116.998;2024-03-08T12:23:47;0.00;0.00;0.00
45700;PMS5003;36277;32.852;-116.998;2024-03-08T12:26:28;0.00;0.00;0.00
45700;PMS5003;36277;32.852;-116.998;2024-03-08T12:28:56;0.00;0.00;0.00
45700;PMS5003;36277;32.852;-116.998;2024-03-08T12:34:53;0.00;0.00;0.00
45700;PMS5003;36277;32.852;-116.998;2024-03-08T12:37:19;0.00;0.00;0.00
45700;PMS5003;36277;32.852;-116.998;2024-03-08T12:39:46;0.00;0.00;0.00
45700;PMS5003;36277;32.852;-116.998;2024-03-08T12:42:12;0.00;0.00;0.00
45700;PMS5003;36277;32.852;-116.998;2024-03-08T12:44:38;0.00;0.00;0.00
45700;PMS5003;36277;32.852;-116.998;2024-03-08T12:47:08;0.00;0.00;0.00
45700;PMS5003;36277;32.852;-116.998;2024-03-08T12:49:34;0.00;0.00;0.00
45700;PMS5003;36277;32.852;-116.998;2024-03-08T12:52:01;0.00;0.00;0.00
45700;PMS5003;36277;32.852;-116.998;2024-03-08T12:54:27;0.00;0.00;0.00
45700;PMS5003;36277;32.852;-116.998;2024-03-08T12:56:53;0.00;0.00;0.00
45700;PMS5003;36277;32.852;-116.998;2024-03-08T12:59:20;0.00;0.00;0.00
45700;PMS5003;36277;32.852;-116.998;2024-03-08T13:01:47;0.00;0.00;0.00
45700;PMS5003;36277;32.852;-116.998;2024-03-08T13:04:13;0.00;0.00;0.00
45700;PMS5003;36277;32.852;-116.998;2024-03-08T13:06:40;0.00;0.00;0.00
45700;PMS5003;36277;32.852;-116.998;2024-03-08T13:09:06;0.00;0.00;0.00
45700;PMS5003;36277;32.852;-116.998;2024-03-08T13:11:33;0.40;0.40;0.40
45700;PMS5003;36277;32.852;-116.998;2024-03-08T13:14:05;0.00;0.00;0.00
45700;PMS5003;36277;32.852;-116.998;2024-03-08T13:16:31;0.00;0.00;0.00
45700;PMS5003;36277;32.852;-116.998;2024-03-08T13:19:00;0.00;0.00;0.00
45700;PMS5003;36277;32.852;-116.998;2024-03-08T13:21:26;0.00;0.00;0.00
45700;PMS5003;36277;32.852;-116.998;2024-03-08T13:23:52;0.00;0.00;0.00
45700;PMS5003;36277;32.852;-116.998;2024-03-08T13:26:20;0.00;0.00;0.00
45700;PMS5003;36277;32.852;-116.998;2024-03-08T13:28:47;0.00;0.00;0.00
45700;PMS5003;36277;32.852;-116.998;2024-03-08T13:31:22;0.00;0.00;0.00
45700;PMS5003;36277;32.852;-116.998;2024-03-08T13:33:48;0.00;0.00;0.00
45700;PMS5003;36277;32.852;-116.998;2024-03-08T13:36:16;0.00;0.00;0.00
45700;PMS5003;36277;32.852;-116.998;2024-03-08T13:38:47;0.00;0.00;0.00
45700;PMS5003;36277;32.852;-116.998;2024-03-08T13:41:14;0.00;0.00;0.00
45700;PMS5003;36277;32.852;-116.998;2024-03-08T13:43:48;0.00;0.00;0.00
45700;PMS5003;36277;32.852;-116.998;2024-03-08T13:46:15;0.00;0.00;0.00
45700;PMS5003;36277;32.852;-116.998;2024-03-08T13:48:41;0.00;0.00;0.00
45700;PMS5003;36277;32.852;-116.998;2024-03-08T13:51:08;0.00;0.00;0.00
45700;PMS5003;36277;32.852;-116.998;2024-03-08T13:53:40;0.00;0.00;0.00
45700;PMS5003;36277;32.852;-116.998;2024-03-08T13:56:07;0.00;0.00;0.00
45700;PMS5003;36277;32.852;-116.998;2024-03-08T13:58:36;0.00;0.00;0.00
45700;PMS5003;36277;32.852;-116.998;2024-03-08T14:01:02;0.00;0.00;0.00
45700;PMS5003;36277;32.852;-116.998;2024-03-08T14:03:36;0.00;0.00;0.00
45700;PMS5003;36277;32.852;-116.998;2024-03-08T14:06:03;0.00;0.00;0.00